Sitka, South Dakota
Current Conditions -  °F | °C
As of 12:52 PM on Friday 24 Oct 2014 (Local Time) from KMBG Reporting Station
Clear Clear  
Wind Chill: 67°   Ceiling: Unl
Heat Index: 67°   Visibility: 10mi
Dew Point: 40°   Wind: 5mph
Humidity: 37%   Direction: 240°WSW
Pressure: 29.9"   Gusts: NA
Location:  45.4184°N, 100.09°W
Report Text: KMBG 241752Z AUTO 24004KT 10SM CLR 19/04 A2990 RMK AO2 SLP124 T01940044 10194 20039 50004
Loading
Personal Weather Stations






























Interactive Weather Map
Tropical Storm Tracking
New forecast layout! Learn more

10-Day Weather Forecast

Advertisements
Track Severe Weather on mobile